Time;durP1;ratioP1;P1;durP2;ratioP2;P2;SDS_P1;SDS_P2;PMS_P1;PMS_P2;Temp;Humidity;BMP_temperature;BMP_pressure;BME280_temperature;BME280_humidity;BME280_pressure;Samples;Min_cycle;Max_cycle;Signal;HPM_P1;HPM_P2
2023/04/04 00:00:11;;;;;;;9.93;2.80;;;3.50;99.90;;;;;;4791635;29;20059;-79
2023/04/04 00:02:37;;;;;;;6.90;2.95;;;3.50;99.90;;;;;;4791913;30;20109;-78
2023/04/04 00:05:04;;;;;;;6.67;2.77;;;3.60;99.90;;;;;;4775080;30;20528;-78
2023/04/04 00:07:29;;;;;;;6.25;2.70;;;3.50;99.90;;;;;;4775154;30;20143;-78
2023/04/04 00:09:55;;;;;;;9.27;3.23;;;3.50;99.90;;;;;;4790986;29;20047;-78
2023/04/04 00:12:21;;;;;;;8.20;3.17;;;3.40;99.90;;;;;;4775112;30;20058;-78
2023/04/04 00:14:47;;;;;;;6.88;2.90;;;3.40;99.90;;;;;;4775122;30;20063;-79
2023/04/04 00:17:13;;;;;;;7.33;2.80;;;3.40;99.90;;;;;;4791589;30;20130;-78
2023/04/04 00:19:38;;;;;;;10.00;3.37;;;3.30;99.90;;;;;;4790777;30;20485;-78
2023/04/04 00:22:04;;;;;;;9.93;2.90;;;3.40;99.90;;;;;;4775020;30;20066;-78
2023/04/04 00:24:30;;;;;;;8.37;2.97;;;3.40;99.90;;;;;;4791198;30;20106;-79
2023/04/04 00:26:56;;;;;;;6.00;2.85;;;3.30;99.90;;;;;;4790972;30;20055;-78
2023/04/04 00:29:22;;;;;;;7.87;3.00;;;3.40;99.90;;;;;;4790728;30;20118;-79
2023/04/04 00:31:47;;;;;;;8.90;3.37;;;3.40;99.90;;;;;;4774789;30;20055;-78
2023/04/04 00:34:13;;;;;;;9.17;3.13;;;3.40;99.90;;;;;;4790887;30;20485;-78
2023/04/04 00:36:39;;;;;;;6.47;3.03;;;3.50;99.90;;;;;;4789404;29;20091;-78
2023/04/04 00:39:04;;;;;;;9.73;4.60;;;3.40;99.90;;;;;;4774387;30;20054;-78
2023/04/04 00:41:30;;;;;;;5.53;2.93;;;3.50;99.90;;;;;;4790314;30;20116;-78
2023/04/04 00:43:56;;;;;;;5.57;2.70;;;3.40;99.90;;;;;;4790385;30;20389;-78
2023/04/04 00:46:23;;;;;;;7.30;2.83;;;3.40;99.90;;;;;;4790382;30;20051;-78
2023/04/04 00:48:50;;;;;;;9.82;3.05;;;3.40;99.90;;;;;;4790152;30;20142;-78
2023/04/04 00:51:16;;;;;;;6.03;2.95;;;3.40;99.90;;;;;;4774558;30;20515;-78
2023/04/04 00:53:45;;;;;;;7.93;2.90;;;3.40;99.90;;;;;;4790259;30;20055;-78
2023/04/04 00:56:11;;;;;;;7.28;3.15;;;3.40;99.90;;;;;;4790180;30;20055;-78
2023/04/04 00:58:37;;;;;;;6.22;3.38;;;3.50;99.90;;;;;;4790813;30;20047;-78
2023/04/04 01:01:04;;;;;;;7.93;2.90;;;3.50;99.90;;;;;;4790314;30;20086;-78
2023/04/04 01:03:31;;;;;;;7.63;3.47;;;3.50;99.90;;;;;;4789995;30;20134;-78
2023/04/04 01:05:57;;;;;;;7.55;3.03;;;3.40;99.90;;;;;;4774383;30;20112;-78
2023/04/04 01:08:26;;;;;;;5.43;3.15;;;3.40;99.90;;;;;;4790479;30;20048;-78
2023/04/04 01:10:51;;;;;;;10.32;3.60;;;3.40;99.90;;;;;;4789924;30;20164;-78
2023/04/04 01:13:17;;;;;;;9.67;3.50;;;3.30;99.90;;;;;;4789900;30;20109;-78
2023/04/04 01:15:44;;;;;;;8.40;3.33;;;3.20;99.90;;;;;;4773907;30;20060;-78
2023/04/04 01:18:13;;;;;;;8.55;3.40;;;3.20;99.90;;;;;;4789722;30;20305;-78
2023/04/04 01:20:52;;;;;;;8.07;3.17;;;3.20;99.90;;;;;;4789707;30;20157;-79
2023/04/04 01:23:18;;;;;;;8.48;3.33;;;3.20;99.90;;;;;;4789775;30;20091;-78
2023/04/04 01:25:46;;;;;;;8.40;3.70;;;3.10;99.90;;;;;;4789615;30;20067;-78
2023/04/04 01:28:12;;;;;;;8.27;4.03;;;3.10;99.90;;;;;;4789633;30;20126;-78
2023/04/04 01:30:39;;;;;;;7.80;4.27;;;3.10;99.90;;;;;;4759020;30;20063;-78
2023/04/04 01:33:30;;;;;;;10.50;3.75;;;3.10;99.90;;;;;;4790363;30;20116;-78
2023/04/04 01:36:14;;;;;;;7.88;3.72;;;3.00;99.90;;;;;;4780931;29;20067;-78
2023/04/04 01:38:40;;;;;;;10.70;4.07;;;3.00;99.90;;;;;;4773386;30;20055;-82
2023/04/04 01:41:08;;;;;;;10.53;4.90;;;3.00;99.90;;;;;;4789466;30;20055;-78
2023/04/04 01:43:34;;;;;;;8.70;4.10;;;3.00;99.90;;;;;;4789336;29;20066;-78
2023/04/04 01:46:01;;;;;;;8.77;4.27;;;3.00;99.90;;;;;;4789404;30;20513;-78
2023/04/04 01:48:27;;;;;;;9.60;4.18;;;2.90;99.90;;;;;;4789157;29;20304;-78
2023/04/04 01:50:53;;;;;;;7.55;3.78;;;2.90;99.90;;;;;;4789242;30;20134;-78
2023/04/04 01:53:19;;;;;;;7.43;3.63;;;2.90;99.90;;;;;;4773331;30;20135;-77
2023/04/04 01:55:45;;;;;;;8.75;4.25;;;2.90;99.90;;;;;;4789389;30;20060;-78
2023/04/04 01:58:11;;;;;;;7.53;3.73;;;2.90;99.90;;;;;;4789292;30;20047;-78
2023/04/04 02:00:37;;;;;;;9.37;3.60;;;2.80;99.90;;;;;;4773597;30;20353;-78
2023/04/04 02:03:02;;;;;;;9.93;3.93;;;2.90;99.90;;;;;;4789731;30;20122;-78
2023/04/04 02:05:28;;;;;;;11.23;3.83;;;2.80;99.90;;;;;;4773148;30;20480;-79
2023/04/04 02:07:54;;;;;;;7.87;4.30;;;2.80;99.90;;;;;;4788913;30;20051;-78
2023/04/04 02:10:20;;;;;;;7.13;4.03;;;2.80;99.90;;;;;;4788945;29;20400;-77
2023/04/04 02:12:46;;;;;;;11.80;4.23;;;2.70;99.90;;;;;;4788957;30;20055;-79
2023/04/04 02:15:12;;;;;;;8.53;4.10;;;2.70;99.90;;;;;;4758244;30;20054;-79
2023/04/04 02:17:38;;;;;;;11.03;4.60;;;2.70;99.90;;;;;;4788522;30;20055;-78
2023/04/04 02:20:06;;;;;;;10.20;4.40;;;2.70;99.90;;;;;;4772965;30;20051;-79
2023/04/04 02:22:31;;;;;;;7.65;4.05;;;2.70;99.90;;;;;;4788776;30;20138;-78
2023/04/04 02:24:59;;;;;;;9.80;4.33;;;2.70;99.90;;;;;;4773693;30;20487;-79
2023/04/04 02:27:25;;;;;;;9.27;4.40;;;2.70;99.90;;;;;;4788758;30;20138;-78
2023/04/04 02:29:51;;;;;;;7.88;3.60;;;2.60;99.90;;;;;;4788616;30;20158;-79
2023/04/04 02:32:17;;;;;;;9.07;5.05;;;2.60;99.90;;;;;;4788644;30;20063;-78
2023/04/04 02:34:43;;;;;;;7.87;4.27;;;2.60;99.90;;;;;;4788554;29;20062;-78
2023/04/04 02:37:09;;;;;;;9.27;4.40;;;2.60;99.90;;;;;;4788979;30;20116;-78
2023/04/04 02:39:34;;;;;;;7.70;4.03;;;2.50;99.90;;;;;;4789323;30;20063;-78
2023/04/04 02:42:00;;;;;;;9.67;4.27;;;2.50;99.90;;;;;;4772672;30;20515;-78
2023/04/04 02:44:26;;;;;;;8.70;3.83;;;2.50;99.90;;;;;;4772984;30;20499;-78
2023/04/04 02:46:51;;;;;;;7.73;4.07;;;2.50;99.90;;;;;;4757836;30;20055;-78
2023/04/04 02:49:17;;;;;;;7.73;3.77;;;2.40;99.90;;;;;;4788577;30;20116;-78
2023/04/04 02:51:43;;;;;;;8.57;4.27;;;2.50;99.90;;;;;;4788433;30;20058;-78
2023/04/04 02:54:09;;;;;;;11.07;4.57;;;2.40;99.90;;;;;;4788415;30;20066;-78
2023/04/04 02:56:37;;;;;;;7.67;4.17;;;2.40;99.90;;;;;;4757507;30;20055;-78
2023/04/04 02:59:03;;;;;;;9.93;4.03;;;2.40;99.90;;;;;;4789447;29;20058;-78
2023/04/04 03:01:30;;;;;;;6.43;3.70;;;2.40;99.90;;;;;;4792146;30;20461;-78
2023/04/04 03:03:55;;;;;;;9.23;4.00;;;2.30;99.90;;;;;;4776424;30;20130;-78
2023/04/04 03:06:22;;;;;;;7.13;3.87;;;2.30;99.90;;;;;;4792082;30;20135;-78
2023/04/04 03:08:47;;;;;;;7.72;3.78;;;2.40;99.90;;;;;;4776080;30;20055;-78
2023/04/04 03:11:20;;;;;;;9.17;4.20;;;2.30;99.90;;;;;;4761346;30;20158;-78
2023/04/04 03:13:46;;;;;;;9.48;3.75;;;2.40;99.90;;;;;;4792201;29;20055;-78
2023/04/04 03:16:14;;;;;;;8.60;4.07;;;2.30;99.90;;;;;;4791872;30;20471;-77
2023/04/04 03:18:40;;;;;;;9.02;3.58;;;2.30;99.90;;;;;;4791798;30;20050;-78
2023/04/04 03:21:05;;;;;;;9.47;4.00;;;2.30;99.90;;;;;;4791742;30;20055;-77
2023/04/04 03:23:31;;;;;;;9.30;5.00;;;2.30;99.90;;;;;;4761078;30;20160;-77
2023/04/04 03:25:57;;;;;;;8.70;4.63;;;2.30;99.90;;;;;;4791635;30;20195;-78
2023/04/04 03:28:23;;;;;;;9.27;4.00;;;2.30;99.90;;;;;;4791616;30;20366;-78
2023/04/04 03:30:49;;;;;;;12.43;4.50;;;2.30;99.90;;;;;;4792030;30;20055;-79
2023/04/04 03:33:15;;;;;;;8.10;4.40;;;2.30;99.90;;;;;;4792069;30;20383;-78
2023/04/04 03:35:41;;;;;;;11.27;4.82;;;2.20;99.90;;;;;;4791580;30;20055;-78
2023/04/04 03:38:08;;;;;;;11.27;4.10;;;2.30;99.90;;;;;;4791447;30;20062;-78
2023/04/04 03:40:34;;;;;;;9.00;4.00;;;2.30;99.90;;;;;;4791490;30;20051;-78
2023/04/04 03:43:01;;;;;;;10.30;4.63;;;2.30;99.90;;;;;;4791486;30;20081;-79
2023/04/04 03:45:28;;;;;;;8.95;4.20;;;2.20;99.90;;;;;;4791448;29;20059;-79
2023/04/04 03:47:55;;;;;;;10.77;4.28;;;2.20;99.90;;;;;;4775133;30;20067;-79
2023/04/04 03:50:21;;;;;;;8.70;4.20;;;2.20;99.90;;;;;;4791320;30;20063;-79
2023/04/04 03:52:47;;;;;;;10.03;4.10;;;2.20;99.90;;;;;;4791005;30;20569;-79
2023/04/04 03:55:12;;;;;;;10.10;4.20;;;2.10;99.90;;;;;;4791539;30;20051;-79
2023/04/04 03:57:38;;;;;;;6.97;3.90;;;2.20;99.90;;;;;;4791166;30;20127;-78
2023/04/04 04:00:04;;;;;;;9.23;3.60;;;2.20;99.90;;;;;;4775193;30;20051;-78
2023/04/04 04:02:30;;;;;;;9.60;3.92;;;2.30;99.90;;;;;;4791033;30;20123;-78
2023/04/04 04:04:56;;;;;;;8.13;4.07;;;2.20;99.90;;;;;;4791603;30;20476;-78
2023/04/04 04:07:21;;;;;;;11.73;3.80;;;2.30;99.90;;;;;;4790794;30;20052;-78
2023/04/04 04:09:47;;;;;;;7.73;3.70;;;2.30;99.90;;;;;;4790763;29;20188;-78
2023/04/04 04:12:14;;;;;;;7.23;3.67;;;2.30;99.90;;;;;;4791269;30;20051;-78
2023/04/04 04:14:40;;;;;;;10.88;4.00;;;2.30;99.90;;;;;;4761032;30;20055;-78
2023/04/04 04:17:06;;;;;;;8.25;3.47;;;2.30;99.90;;;;;;4760031;30;20412;-78
2023/04/04 04:19:31;;;;;;;8.15;3.75;;;2.30;99.90;;;;;;4791126;29;20189;-78
2023/04/04 04:21:57;;;;;;;8.03;4.23;;;2.20;99.90;;;;;;4790513;30;20145;-78
2023/04/04 04:24:23;;;;;;;9.13;4.20;;;2.30;99.90;;;;;;4775403;30;20062;-78
2023/04/04 04:26:49;;;;;;;8.73;3.60;;;2.30;99.90;;;;;;4790688;30;20147;-78
2023/04/04 04:29:15;;;;;;;8.40;4.07;;;2.30;99.90;;;;;;4760046;30;20197;-79
2023/04/04 04:31:41;;;;;;;9.25;4.65;;;2.30;99.90;;;;;;4775093;30;20387;-78
2023/04/04 04:34:10;;;;;;;8.80;4.33;;;2.30;99.90;;;;;;4790442;30;20051;-79
2023/04/04 04:36:36;;;;;;;7.88;4.32;;;2.30;99.90;;;;;;4790439;30;20070;-78
2023/04/04 04:39:02;;;;;;;10.20;4.67;;;2.30;99.90;;;;;;4790355;30;20055;-78
2023/04/04 04:41:31;;;;;;;7.03;3.63;;;2.30;99.90;;;;;;4790576;30;20848;-79
2023/04/04 04:43:56;;;;;;;7.78;3.95;;;2.30;99.90;;;;;;4790427;30;20067;-78
2023/04/04 04:46:22;;;;;;;8.50;3.77;;;2.20;99.90;;;;;;4790297;30;20143;-78
2023/04/04 04:48:48;;;;;;;10.30;3.47;;;2.20;99.90;;;;;;4789991;29;20098;-78
2023/04/04 04:51:14;;;;;;;8.57;3.83;;;2.20;99.90;;;;;;4774396;30;20479;-78
2023/04/04 04:53:40;;;;;;;11.67;4.53;;;2.20;99.90;;;;;;4774180;30;20051;-77
2023/04/04 04:56:06;;;;;;;7.28;3.70;;;2.30;99.90;;;;;;4790668;30;20051;-78
2023/04/04 04:58:32;;;;;;;8.60;3.70;;;2.30;99.90;;;;;;4789772;30;20488;-78
2023/04/04 05:00:58;;;;;;;7.77;4.10;;;2.30;99.90;;;;;;4790806;30;20053;-78
2023/04/04 05:03:24;;;;;;;7.77;3.80;;;2.40;99.90;;;;;;4790554;30;20397;-78
2023/04/04 05:05:50;;;;;;;7.68;3.78;;;2.30;99.90;;;;;;4789969;30;20124;-77
2023/04/04 05:08:16;;;;;;;9.50;3.97;;;2.20;99.90;;;;;;4790686;30;20070;-77
2023/04/04 05:10:42;;;;;;;11.10;4.67;;;2.20;99.90;;;;;;4790670;30;20461;-79
2023/04/04 05:13:08;;;;;;;8.63;4.10;;;2.20;99.90;;;;;;4789822;30;20063;-80
2023/04/04 05:15:34;;;;;;;8.65;4.40;;;2.20;99.90;;;;;;4773918;30;20067;-78
2023/04/04 05:18:00;;;;;;;7.83;4.00;;;2.20;99.90;;;;;;4774524;30;20112;-79
2023/04/04 05:20:26;;;;;;;9.13;4.17;;;2.20;99.90;;;;;;4789739;30;20405;-79
2023/04/04 05:22:52;;;;;;;10.43;3.88;;;2.20;99.90;;;;;;4789049;29;20059;-78
2023/04/04 05:25:18;;;;;;;9.27;4.73;;;2.20;99.90;;;;;;4789659;30;20051;-78
2023/04/04 05:27:47;;;;;;;10.57;4.43;;;2.20;99.90;;;;;;4789960;30;20074;-79
2023/04/04 05:30:13;;;;;;;9.82;4.30;;;2.20;99.90;;;;;;4789615;30;20051;-79
2023/04/04 05:32:39;;;;;;;8.67;4.20;;;2.10;99.90;;;;;;4789539;30;20130;-79
2023/04/04 05:35:05;;;;;;;10.65;3.95;;;2.20;99.90;;;;;;4773881;30;20130;-78
2023/04/04 05:37:31;;;;;;;6.82;3.80;;;2.20;99.90;;;;;;4773680;30;20055;-79
2023/04/04 05:39:56;;;;;;;8.43;3.90;;;2.20;99.90;;;;;;4789404;30;20550;-79
2023/04/04 05:42:22;;;;;;;7.83;3.70;;;2.30;99.90;;;;;;4774348;30;20047;-79
2023/04/04 05:44:48;;;;;;;10.37;4.50;;;2.40;99.90;;;;;;4789012;30;20078;-78
2023/04/04 05:47:14;;;;;;;8.63;4.77;;;2.40;99.90;;;;;;4789618;30;20055;-79
2023/04/04 05:49:40;;;;;;;9.70;4.60;;;2.40;99.90;;;;;;4789468;29;20067;-79
2023/04/04 05:52:06;;;;;;;8.23;4.97;;;2.40;99.90;;;;;;4773495;30;20057;-78
2023/04/04 05:54:32;;;;;;;12.30;5.05;;;2.50;99.90;;;;;;4789240;30;20059;-79
2023/04/04 05:56:57;;;;;;;9.60;4.70;;;2.50;99.90;;;;;;4789272;29;20051;-79
2023/04/04 05:59:23;;;;;;;8.83;4.17;;;2.50;99.90;;;;;;4789335;30;20051;-79
2023/04/04 06:01:49;;;;;;;8.53;4.50;;;2.70;99.90;;;;;;4773477;30;20055;-78
2023/04/04 06:04:15;;;;;;;8.18;3.60;;;2.70;99.90;;;;;;4789005;30;20063;-80
2023/04/04 06:06:41;;;;;;;9.30;4.43;;;2.80;99.90;;;;;;4789018;30;20051;-79
2023/04/04 06:09:07;;;;;;;11.45;3.95;;;2.80;99.90;;;;;;4788954;30;20051;-79
2023/04/04 06:11:32;;;;;;;7.10;3.47;;;3.00;99.90;;;;;;4789170;30;20051;-79
2023/04/04 06:13:58;;;;;;;8.60;3.87;;;3.10;99.90;;;;;;4788902;30;20058;-79
2023/04/04 06:16:24;;;;;;;11.37;3.23;;;3.80;99.90;;;;;;4772878;30;20126;-79
2023/04/04 06:18:50;;;;;;;11.32;3.78;;;4.70;99.90;;;;;;4789036;30;20512;-79
2023/04/04 06:21:16;;;;;;;7.03;3.40;;;5.80;99.90;;;;;;4773022;30;20051;-84
2023/04/04 06:23:41;;;;;;;11.00;4.70;;;6.70;99.90;;;;;;4788843;30;20051;-79
2023/04/04 06:26:07;;;;;;;7.37;2.90;;;7.50;99.90;;;;;;4788866;29;20171;-79
2023/04/04 06:28:33;;;;;;;7.20;3.03;;;8.20;99.90;;;;;;4772529;30;20130;-79
2023/04/04 06:30:59;;;;;;;8.00;2.60;;;8.80;99.90;;;;;;4788760;30;20055;-79
2023/04/04 06:33:25;;;;;;;7.33;2.90;;;8.90;99.90;;;;;;4788689;29;20508;-79
2023/04/04 06:35:50;;;;;;;6.57;2.93;;;9.00;99.90;;;;;;4788632;29;20043;-79
2023/04/04 06:38:16;;;;;;;5.27;2.27;;;9.40;98.90;;;;;;4773087;30;20051;-79
2023/04/04 06:40:42;;;;;;;5.10;2.77;;;9.40;97.70;;;;;;4788578;30;20435;-80
2023/04/04 06:43:09;;;;;;;7.27;2.73;;;9.40;94.20;;;;;;4772714;30;20112;-79
2023/04/04 06:45:35;;;;;;;7.97;2.47;;;9.10;91.40;;;;;;4789030;30;20138;-79
2023/04/04 06:48:01;;;;;;;7.13;2.60;;;9.00;92.90;;;;;;4772261;29;20368;-80
2023/04/04 06:50:32;;;;;;;6.87;2.90;;;8.90;94.00;;;;;;4788544;30;20055;-80
2023/04/04 06:53:00;;;;;;;5.40;2.50;;;9.10;94.50;;;;;;4789346;30;20639;-80
2023/04/04 06:55:27;;;;;;;7.57;2.67;;;9.10;90.80;;;;;;4788483;30;20623;-80
2023/04/04 06:57:53;;;;;;;9.50;3.10;;;9.40;91.30;;;;;;4788428;30;20418;-79
2023/04/04 07:00:19;;;;;;;6.90;2.83;;;9.70;89.70;;;;;;4788498;30;20347;-79
2023/04/04 07:02:45;;;;;;;7.20;3.17;;;9.60;84.70;;;;;;4772789;30;20333;-77
2023/04/04 07:05:13;;;;;;;7.90;3.07;;;9.40;84.20;;;;;;4788956;29;20293;-79
2023/04/04 07:07:38;;;;;;;6.87;2.57;;;9.80;83.30;;;;;;4772787;30;20309;-79
2023/04/04 07:10:05;;;;;;;8.87;2.70;;;10.20;81.10;;;;;;4788110;30;20662;-79
2023/04/04 07:12:32;;;;;;;7.23;2.90;;;10.60;78.60;;;;;;4788040;30;20501;-79
2023/04/04 07:14:57;;;;;;;4.73;2.10;;;10.70;77.50;;;;;;4788323;30;20376;-77
2023/04/04 07:17:24;;;;;;;5.33;2.50;;;10.50;73.20;;;;;;4772281;30;20325;-80
2023/04/04 07:19:49;;;;;;;7.70;2.80;;;10.20;69.90;;;;;;4788761;30;20047;-79
2023/04/04 07:22:15;;;;;;;8.40;3.60;;;10.40;70.70;;;;;;4788233;30;20296;-79
2023/04/04 07:24:41;;;;;;;6.60;2.40;;;10.50;70.40;;;;;;4788168;30;20057;-80
2023/04/04 07:27:07;;;;;;;8.57;3.00;;;10.30;68.60;;;;;;4772296;30;20130;-79
2023/04/04 07:29:32;;;;;;;7.97;2.60;;;10.20;66.60;;;;;;4788127;30;20112;-77
2023/04/04 07:31:58;;;;;;;7.10;2.87;;;10.30;67.60;;;;;;4772164;30;20112;-78
2023/04/04 07:34:25;;;;;;;6.00;2.33;;;10.60;70.20;;;;;;4772549;30;20055;-78
2023/04/04 07:36:52;;;;;;;8.17;3.23;;;10.80;68.30;;;;;;4757902;30;20059;-78
2023/04/04 07:39:18;;;;;;;6.53;2.60;;;10.80;66.20;;;;;;4788037;30;20308;-78
2023/04/04 07:41:44;;;;;;;7.53;2.97;;;10.80;68.00;;;;;;4772151;30;20778;-78
2023/04/04 07:44:10;;;;;;;8.37;3.10;;;11.00;67.10;;;;;;4788578;30;20285;-78
2023/04/04 07:46:37;;;;;;;6.53;3.00;;;11.40;66.10;;;;;;4774699;30;20047;-78
2023/04/04 07:49:02;;;;;;;6.17;2.83;;;11.90;65.80;;;;;;4791064;30;20120;-78
2023/04/04 07:51:29;;;;;;;6.63;2.63;;;12.30;64.80;;;;;;4791253;30;20648;-78
2023/04/04 07:53:56;;;;;;;5.03;2.30;;;12.10;60.90;;;;;;4791767;30;20070;-78
2023/04/04 07:56:22;;;;;;;6.67;2.97;;;11.70;58.10;;;;;;4791253;30;20320;-77
2023/04/04 07:58:47;;;;;;;5.60;2.43;;;11.20;60.40;;;;;;4775271;30;20313;-77
2023/04/04 08:01:13;;;;;;;5.40;2.30;;;10.80;61.60;;;;;;4775224;30;20300;-77
2023/04/04 08:03:39;;;;;;;5.23;2.17;;;10.40;62.30;;;;;;4791549;30;20100;-77
2023/04/04 08:06:05;;;;;;;6.90;2.07;;;10.10;62.50;;;;;;4791051;29;20134;-77
2023/04/04 08:08:31;;;;;;;5.87;2.10;;;9.90;63.00;;;;;;4791067;30;20750;-77
2023/04/04 08:10:57;;;;;;;7.07;2.83;;;9.80;63.40;;;;;;4775384;30;20380;-78
2023/04/04 08:13:22;;;;;;;6.70;2.03;;;9.50;62.80;;;;;;4790918;30;20052;-77
2023/04/04 08:15:48;;;;;;;7.23;2.50;;;9.30;63.30;;;;;;4790833;30;20052;-77
2023/04/04 08:18:14;;;;;;;7.27;2.30;;;9.20;64.60;;;;;;4790412;30;20483;-78
2023/04/04 08:20:40;;;;;;;5.07;1.97;;;9.30;64.80;;;;;;4790745;30;20368;-77
2023/04/04 08:23:06;;;;;;;7.23;2.20;;;9.40;65.40;;;;;;4790998;30;20365;-77
2023/04/04 08:25:33;;;;;;;6.87;2.20;;;9.40;64.90;;;;;;4790712;30;20400;-79
2023/04/04 08:27:59;;;;;;;6.50;2.10;;;9.50;64.20;;;;;;4774884;30;20054;-77
2023/04/04 08:30:25;;;;;;;9.00;2.40;;;9.50;64.10;;;;;;4790573;30;20293;-78
2023/04/04 08:32:51;;;;;;;8.17;2.10;;;9.40;64.30;;;;;;4790562;30;20292;-77
2023/04/04 08:35:16;;;;;;;9.13;2.33;;;9.40;64.70;;;;;;4790795;29;20051;-79
2023/04/04 08:37:45;;;;;;;6.00;2.13;;;9.30;64.70;;;;;;4790111;29;20405;-78
2023/04/04 08:40:12;;;;;;;6.30;2.13;;;9.10;64.70;;;;;;4774659;30;20051;-77
2023/04/04 08:42:40;;;;;;;7.73;3.13;;;8.90;64.80;;;;;;4790422;30;20281;-77
2023/04/04 08:45:08;;;;;;;6.07;2.30;;;8.70;65.10;;;;;;4774817;30;20376;-78
2023/04/04 08:47:37;;;;;;;5.77;2.37;;;8.60;65.80;;;;;;4790920;29;20289;-78
2023/04/04 08:50:05;;;;;;;5.83;2.30;;;8.60;66.30;;;;;;4790414;30;20289;-78
2023/04/04 08:52:33;;;;;;;6.67;2.90;;;8.60;66.90;;;;;;4790342;30;20289;-77
2023/04/04 08:55:00;;;;;;;5.27;2.37;;;8.70;67.30;;;;;;4790747;30;20385;-79
2023/04/04 08:57:26;;;;;;;6.43;2.50;;;8.80;67.50;;;;;;4789188;29;20292;-80
2023/04/04 08:59:52;;;;;;;6.97;2.20;;;8.90;67.10;;;;;;4775114;30;20293;-77
2023/04/04 09:02:33;;;;;;;6.40;2.37;;;9.00;66.50;;;;;;4790718;30;20285;-75
2023/04/04 09:05:00;;;;;;;5.90;2.53;;;9.10;65.40;;;;;;4790152;30;20331;-73
2023/04/04 09:07:27;;;;;;;5.50;2.30;;;9.10;66.50;;;;;;4790160;30;20732;-82
2023/04/04 09:09:53;;;;;;;7.33;2.70;;;9.10;65.10;;;;;;4790561;30;20293;-80
2023/04/04 09:12:21;;;;;;;5.10;2.57;;;9.00;65.70;;;;;;4789960;29;20307;-80
2023/04/04 09:14:49;;;;;;;7.13;3.10;;;8.90;64.80;;;;;;4790490;30;20051;-78
2023/04/04 09:17:15;;;;;;;8.67;3.23;;;8.80;65.10;;;;;;4789857;30;20293;-79
2023/04/04 09:19:40;;;;;;;7.63;2.67;;;8.80;66.40;;;;;;4773848;30;20303;-76
2023/04/04 09:22:08;;;;;;;7.83;2.40;;;8.80;66.50;;;;;;4790625;30;20056;-77
2023/04/04 09:24:41;;;;;;;9.37;2.73;;;8.80;66.20;;;;;;4774281;30;20336;-71
2023/04/04 09:27:11;;;;;;;6.13;2.43;;;8.80;66.50;;;;;;4789820;30;20296;-76
2023/04/04 09:29:38;;;;;;;6.83;2.40;;;8.90;66.10;;;;;;4789720;29;20789;-74
2023/04/04 09:32:08;;;;;;;5.30;2.03;;;8.80;65.40;;;;;;4789679;30;20354;-75
2023/04/04 09:34:35;;;;;;;6.50;2.20;;;8.80;66.50;;;;;;4789633;30;20333;-78
2023/04/04 09:37:04;;;;;;;9.53;2.40;;;8.80;66.40;;;;;;4790051;30;20289;-78
2023/04/04 09:39:31;;;;;;;6.07;2.03;;;8.70;63.90;;;;;;4789322;30;20321;-78
2023/04/04 09:41:57;;;;;;;7.27;2.30;;;8.60;63.80;;;;;;4789910;30;20845;-78
2023/04/04 09:44:24;;;;;;;8.03;2.40;;;8.60;65.10;;;;;;4789490;30;20291;-78
2023/04/04 09:46:53;;;;;;;7.00;2.77;;;8.60;65.20;;;;;;4789459;30;20289;-78
2023/04/04 09:49:22;;;;;;;4.63;1.93;;;8.60;65.00;;;;;;4789397;30;20694;-78
2023/04/04 09:51:52;;;;;;;7.73;1.80;;;8.70;65.30;;;;;;4789308;30;20297;-78
2023/04/04 09:54:22;;;;;;;5.57;1.83;;;8.70;64.80;;;;;;4789914;30;20350;-78
2023/04/04 09:56:48;;;;;;;5.77;2.40;;;8.70;63.70;;;;;;4789238;29;20346;-78
2023/04/04 09:59:15;;;;;;;6.47;1.83;;;8.80;65.00;;;;;;4789214;30;20309;-78
2023/04/04 10:01:42;;;;;;;6.27;2.40;;;8.70;64.00;;;;;;4789181;30;20289;-78
2023/04/04 10:04:08;;;;;;;5.67;2.20;;;8.70;62.90;;;;;;4789099;30;20304;-78
2023/04/04 10:06:36;;;;;;;6.70;2.30;;;8.70;63.70;;;;;;4773729;30;20284;-78
2023/04/04 10:09:03;;;;;;;7.00;2.33;;;8.70;65.20;;;;;;4788819;29;20300;-78
2023/04/04 10:11:33;;;;;;;6.67;2.30;;;8.70;65.30;;;;;;4789042;30;20293;-78
2023/04/04 10:14:02;;;;;;;7.50;2.50;;;8.80;66.20;;;;;;4789025;30;20292;-78
2023/04/04 10:16:31;;;;;;;8.13;2.80;;;8.80;66.90;;;;;;4789040;30;20299;-78
2023/04/04 10:18:59;;;;;;;8.40;3.17;;;8.70;66.40;;;;;;4789371;30;20396;-78
2023/04/04 10:21:26;;;;;;;8.23;3.10;;;8.60;66.70;;;;;;4788877;29;20297;-78
2023/04/04 10:23:53;;;;;;;6.07;2.80;;;8.60;66.30;;;;;;4788793;30;20634;-78
2023/04/04 10:26:18;;;;;;;9.43;3.20;;;8.60;67.40;;;;;;4789499;29;20301;-78
2023/04/04 10:28:44;;;;;;;6.47;2.80;;;8.50;67.60;;;;;;4772920;30;20409;-78
2023/04/04 10:31:24;;;;;;;5.93;2.73;;;8.60;66.70;;;;;;4788658;30;20055;-78
2023/04/04 10:34:12;;;;;;;6.77;3.20;;;8.60;66.10;;;;;;4789777;30;20059;-78
2023/04/04 10:37:11;;;;;;;9.13;3.40;;;8.60;65.90;;;;;;4788589;30;20389;-79
2023/04/04 10:39:43;;;;;;;9.13;2.70;;;8.50;66.50;;;;;;4788274;30;20806;-78
2023/04/04 10:42:12;;;;;;;10.97;3.37;;;8.50;68.50;;;;;;4788650;30;20743;-79
2023/04/04 10:44:39;;;;;;;5.80;2.70;;;8.60;68.40;;;;;;4788440;30;20300;-80
2023/04/04 10:47:22;;;;;;;6.27;2.70;;;8.60;67.30;;;;;;4788225;29;20830;-77
2023/04/04 10:49:50;;;;;;;6.60;2.10;;;8.60;68.10;;;;;;4788706;29;20309;-79
2023/04/04 10:52:18;;;;;;;5.23;2.20;;;8.70;68.30;;;;;;4772524;30;20312;-76
2023/04/04 10:54:45;;;;;;;8.33;2.37;;;8.80;68.60;;;;;;4788440;30;20300;-78
2023/04/04 10:57:13;;;;;;;7.93;2.90;;;8.80;67.30;;;;;;4788855;30;20285;-77
2023/04/04 11:00:03;;;;;;;5.43;2.00;;;8.90;66.20;;;;;;4788885;30;20757;-79
2023/04/04 11:02:50;;;;;;;5.30;2.27;;;8.90;65.80;;;;;;4788463;30;20371;-78
2023/04/04 11:05:24;;;;;;;8.57;2.10;;;8.90;63.80;;;;;;4788328;29;20308;-78
2023/04/04 11:07:58;;;;;;;7.57;2.60;;;8.90;64.20;;;;;;4788602;30;20332;-78
2023/04/04 11:10:28;;;;;;;5.63;2.17;;;9.00;64.30;;;;;;4772080;30;20055;-77
2023/04/04 11:12:57;;;;;;;5.10;2.33;;;9.00;65.60;;;;;;4788732;30;20285;-77
2023/04/04 11:15:24;;;;;;;7.03;3.03;;;9.20;66.10;;;;;;4788154;30;20293;-78
2023/04/04 11:17:57;;;;;;;9.10;2.67;;;9.30;66.20;;;;;;4788023;30;20309;-77
2023/04/04 11:20:28;;;;;;;10.03;2.57;;;9.40;65.80;;;;;;4789331;29;20330;-78
2023/04/04 11:23:09;;;;;;;7.93;2.80;;;9.60;66.30;;;;;;4775734;30;20301;-79
2023/04/04 11:25:48;;;;;;;8.47;2.30;;;9.60;65.10;;;;;;4791890;30;20277;-78
2023/04/04 11:28:25;;;;;;;7.30;2.50;;;9.70;65.00;;;;;;4791654;30;20293;-77
2023/04/04 11:31:25;;;;;;;7.10;2.73;;;9.70;64.30;;;;;;4792203;30;20320;-79
2023/04/04 11:34:02;;;;;;;6.23;2.30;;;9.80;63.40;;;;;;4791659;30;20300;-77
2023/04/04 11:36:34;;;;;;;5.50;2.30;;;9.80;63.30;;;;;;4791624;30;20300;-80
2023/04/04 11:39:25;;;;;;;7.13;3.37;;;9.90;63.00;;;;;;4776141;30;20312;-78
2023/04/04 11:41:52;;;;;;;5.80;2.70;;;9.90;63.00;;;;;;4782864;29;20297;-78
2023/04/04 11:44:20;;;;;;;6.33;2.77;;;9.90;62.60;;;;;;4791437;29;20300;-78
2023/04/04 11:46:46;;;;;;;6.67;2.73;;;9.80;62.50;;;;;;4791952;29;20676;-77
2023/04/04 11:49:13;;;;;;;5.30;2.47;;;9.80;62.60;;;;;;4791514;29;20396;-79
2023/04/04 11:51:40;;;;;;;6.33;2.60;;;9.80;63.30;;;;;;4791315;30;20293;-81
2023/04/04 11:54:16;;;;;;;6.57;2.70;;;9.80;63.20;;;;;;4791235;29;20296;-73
2023/04/04 11:56:44;;;;;;;5.93;2.57;;;9.80;62.70;;;;;;4760985;30;20307;-74
2023/04/04 11:59:20;;;;;;;8.10;2.90;;;9.70;62.60;;;;;;4791155;30;20309;-74
2023/04/04 12:01:47;;;;;;;7.87;2.57;;;9.70;62.30;;;;;;4790853;30;20778;-72
2023/04/04 12:04:19;;;;;;;7.93;3.00;;;9.60;62.60;;;;;;4791191;30;20347;-71
2023/04/04 12:06:52;;;;;;;7.03;3.27;;;9.60;62.70;;;;;;4776047;30;20365;-72
2023/04/04 12:09:19;;;;;;;7.90;3.00;;;9.70;63.70;;;;;;4791014;30;20293;-73
2023/04/04 12:11:46;;;;;;;6.03;2.53;;;9.70;62.40;;;;;;4791655;30;20296;-73
2023/04/04 12:14:22;;;;;;;5.67;2.73;;;9.70;62.90;;;;;;4790952;30;20329;-74
2023/04/04 12:16:53;;;;;;;5.30;2.40;;;9.70;63.00;;;;;;4775621;30;20765;-73
2023/04/04 12:19:19;;;;;;;6.03;2.43;;;9.70;62.10;;;;;;4790782;30;20308;-72
2023/04/04 12:21:45;;;;;;;5.37;2.50;;;9.70;62.70;;;;;;4774596;30;20301;-73
2023/04/04 12:24:12;;;;;;;7.10;3.00;;;9.70;61.60;;;;;;4774921;30;20654;-75
2023/04/04 12:26:40;;;;;;;5.53;2.37;;;9.70;62.50;;;;;;4790782;29;20747;-74
2023/04/04 12:29:08;;;;;;;6.07;2.43;;;9.60;62.10;;;;;;4791237;30;20281;-75
2023/04/04 12:31:37;;;;;;;4.87;2.63;;;9.60;61.70;;;;;;4775382;30;20343;-75
2023/04/04 12:34:03;;;;;;;6.00;2.50;;;9.60;62.80;;;;;;4790663;30;20770;-76
2023/04/04 12:36:30;;;;;;;7.97;2.73;;;9.70;63.40;;;;;;4790602;30;20288;-75
2023/04/04 12:39:07;;;;;;;7.13;3.70;;;9.80;62.90;;;;;;4791025;30;20414;-79
2023/04/04 12:41:34;;;;;;;7.17;3.13;;;9.80;62.50;;;;;;4790530;30;20293;-76
2023/04/04 12:44:04;;;;;;;6.70;2.77;;;9.80;62.40;;;;;;4790762;30;20289;-78
2023/04/04 12:46:40;;;;;;;7.97;3.10;;;9.80;62.70;;;;;;4790990;30;20292;-78
2023/04/04 12:49:07;;;;;;;9.20;2.50;;;9.80;63.30;;;;;;4789976;29;20304;-79
2023/04/04 12:51:35;;;;;;;5.90;2.50;;;9.90;63.50;;;;;;4790398;30;20304;-77
2023/04/04 12:54:02;;;;;;;7.13;2.90;;;9.90;63.50;;;;;;4790312;29;20300;-77
2023/04/04 12:56:30;;;;;;;8.90;3.80;;;9.80;63.10;;;;;;4790231;30;20401;-75